Time;durP1;ratioP1;P1;durP2;ratioP2;P2;SDS_P1;SDS_P2;PMS_P1;PMS_P2;Temp;Humidity;BMP_temperature;BMP_pressure;BME280_temperature;BME280_humidity;BME280_pressure;Samples;Min_cycle;Max_cycle;Signal;HPM_P1;HPM_P2
2023/08/13 00:01:11;;;;;;;;;;;;;;;29.74;43.81;94567.09;5047053;28;7147;-55
2023/08/13 00:03:37;;;;;;;;;;;;;;;29.75;43.20;94563.78;5051962;28;9092;-56
2023/08/13 00:06:03;;;;;;;;;;;;;;;29.74;42.86;94562.31;5054822;28;6988;-56
2023/08/13 00:08:29;;;;;;;;;;;;;;;29.71;43.67;94554.28;5033718;28;7960;-55
2023/08/13 00:11:00;;;;;;;;;;;;;;;29.68;42.74;94563.66;5077593;28;9171;-55
2023/08/13 00:13:28;;;;;;;;;;;;;;;29.67;43.06;94570.47;5046605;28;9081;-56
2023/08/13 00:15:57;;;;;;;;;;;;;;;29.64;43.34;94571.56;5045644;28;7223;-56
2023/08/13 00:18:23;;;;;;;;;;;;;;;29.64;43.22;94574.34;5049210;28;9192;-55
2023/08/13 00:20:49;;;;;;;;;;;;;;;29.63;42.40;94572.84;5029572;28;8742;-55
2023/08/13 00:23:16;;;;;;;;;;;;;;;29.60;42.49;94563.56;5050583;28;7064;-56
2023/08/13 00:25:43;;;;;;;;;;;;;;;29.58;43.57;94560.56;5044360;28;9101;-55
2023/08/13 00:28:13;;;;;;;;;;;;;;;29.62;42.78;94561.00;5082834;28;7079;-55
2023/08/13 00:30:41;;;;;;;;;;;;;;;29.61;42.88;94556.00;5050051;28;7660;-55
2023/08/13 00:33:13;;;;;;;;;;;;;;;29.61;43.39;94547.66;5050103;28;6991;-55
2023/08/13 00:35:42;;;;;;;;;;;;;;;29.58;42.97;94537.66;5056206;28;7293;-55
2023/08/13 00:38:14;;;;;;;;;;;;;;;29.56;43.23;94540.97;5049268;28;9072;-55
2023/08/13 00:40:42;;;;;;;;;;;;;;;29.54;43.43;94540.00;5040750;28;6987;-55
2023/08/13 00:43:11;;;;;;;;;;;;;;;29.52;42.61;94550.88;5069125;28;9092;-55
2023/08/13 00:45:37;;;;;;;;;;;;;;;29.51;43.26;94560.47;5049453;28;7273;-55
2023/08/13 00:48:08;;;;;;;;;;;;;;;29.53;43.03;94566.97;5023423;28;7212;-55
2023/08/13 00:50:44;;;;;;;;;;;;;;;29.57;43.47;94561.13;5045161;28;8171;-55
2023/08/13 00:53:29;;;;;;;;;;;;;;;29.59;43.30;94555.78;5028339;28;7257;-55
2023/08/13 00:56:06;;;;;;;;;;;;;;;29.55;42.49;94555.34;5042924;28;6980;-55
2023/08/13 00:58:41;;;;;;;;;;;;;;;29.54;43.19;94553.84;5050490;28;7881;-55
2023/08/13 01:01:07;;;;;;;;;;;;;;;29.52;43.20;94553.63;5042294;28;9234;-56
2023/08/13 01:03:51;;;;;;;;;;;;;;;29.52;42.46;94557.16;5014915;28;7361;-56
2023/08/13 01:06:40;;;;;;;;;;;;;;;29.52;41.99;94564.72;5029904;28;9443;-55
2023/08/13 01:09:27;;;;;;;;;;;;;;;29.49;42.11;94561.00;5041855;28;9205;-55
2023/08/13 01:12:31;;;;;;;;;;;;;;;29.49;42.57;94560.25;5029537;28;6991;-56
2023/08/13 01:15:24;;;;;;;;;;;;;;;29.50;41.90;94570.81;5043001;28;9061;-56
2023/08/13 01:17:52;;;;;;;;;;;;;;;29.49;42.10;94568.59;5046808;28;7330;-55
2023/08/13 01:20:30;;;;;;;;;;;;;;;29.49;42.63;94563.03;5058521;28;7078;-56
2023/08/13 01:23:01;;;;;;;;;;;;;;;29.49;42.55;94554.72;5045036;28;7253;-55
2023/08/13 01:25:52;;;;;;;;;;;;;;;29.46;41.92;94553.00;5050987;28;9189;-56
2023/08/13 01:28:56;;;;;;;;;;;;;;;29.48;42.74;94551.19;5035173;28;9182;-56
2023/08/13 01:31:37;;;;;;;;;;;;;;;29.48;42.02;94542.88;5032202;28;6974;-56
2023/08/13 01:34:50;;;;;;;;;;;;;;;29.49;42.08;94544.34;5034906;28;7078;-55
2023/08/13 01:37:27;;;;;;;;;;;;;;;29.49;42.95;94544.34;4988750;28;7008;-55
2023/08/13 01:40:11;;;;;;;;;;;;;;;29.49;42.02;94536.03;4970351;28;9129;-56
2023/08/13 01:43:06;;;;;;;;;;;;;;;29.47;42.47;94535.13;4970209;28;6977;-55
2023/08/13 01:45:32;;;;;;;;;;;;;;;29.47;41.85;94546.19;4949528;28;7082;-55
2023/08/13 01:48:29;;;;;;;;;;;;;;;29.46;42.19;94547.47;4947438;29;7255;-56
2023/08/13 01:51:00;;;;;;;;;;;;;;;29.46;42.48;94542.69;4951583;28;8748;-55
2023/08/13 01:53:36;;;;;;;;;;;;;;;29.45;42.06;94546.00;4967155;28;7224;-56
2023/08/13 01:56:02;;;;;;;;;;;;;;;29.44;42.10;94544.47;4952494;28;8797;-56
2023/08/13 01:58:28;;;;;;;;;;;;;;;29.45;42.66;94543.94;4954274;28;9578;-55
2023/08/13 02:01:05;;;;;;;;;;;;;;;29.46;42.62;94550.22;4949040;28;7226;-56
2023/08/13 02:03:32;;;;;;;;;;;;;;;29.44;41.67;94553.53;4952704;28;7249;-55
2023/08/13 02:06:11;;;;;;;;;;;;;;;29.39;41.62;94548.84;4955448;28;6975;-56
2023/08/13 02:08:45;;;;;;;;;;;;;;;29.41;42.36;94562.16;4966866;28;9333;-56
2023/08/13 02:11:42;;;;;;;;;;;;;;;29.41;42.53;94557.38;4967655;28;9372;-55
2023/08/13 02:14:37;;;;;;;;;;;;;;;29.39;42.53;94553.63;4895483;29;7287;-56
2023/08/13 02:17:14;;;;;;;;;;;;;;;29.37;42.59;94545.13;4843814;29;6985;-55
2023/08/13 02:19:40;;;;;;;;;;;;;;;29.38;42.36;94552.91;4842154;29;7039;-55
2023/08/13 02:22:24;;;;;;;;;;;;;;;29.37;42.24;94556.19;4867555;29;9428;-54
2023/08/13 02:24:52;;;;;;;;;;;;;;;29.36;41.41;94555.44;4907858;29;7113;-54
2023/08/13 02:27:30;;;;;;;;;;;;;;;29.36;41.99;94555.44;4898533;29;10469;-54
2023/08/13 02:30:17;;;;;;;;;;;;;;;29.35;41.93;94561.53;4914192;29;7218;-54
2023/08/13 02:32:43;;;;;;;;;;;;;;;29.34;42.24;94557.28;4879009;29;7005;-54
2023/08/13 02:35:09;;;;;;;;;;;;;;;29.35;42.00;94553.22;4882490;29;9719;-55
2023/08/13 02:38:07;;;;;;;;;;;;;;;29.35;42.07;94542.13;4889468;29;9040;-54
2023/08/13 02:40:42;;;;;;;;;;;;;;;29.33;41.37;94541.91;4882083;29;7236;-55
2023/08/13 02:43:10;;;;;;;;;;;;;;;29.32;41.88;94541.16;4878572;29;7247;-54
2023/08/13 02:45:50;;;;;;;;;;;;;;;29.31;41.33;94534.16;4913399;29;9055;-54
2023/08/13 02:48:35;;;;;;;;;;;;;;;29.31;42.27;94542.47;4913968;29;7196;-54
2023/08/13 02:51:16;;;;;;;;;;;;;;;29.30;42.20;94529.13;4929033;28;7006;-55
2023/08/13 02:53:44;;;;;;;;;;;;;;;29.30;41.77;94534.66;5011650;28;7879;-54
2023/08/13 02:56:10;;;;;;;;;;;;;;;29.28;41.53;94532.44;5053278;28;7236;-54
2023/08/13 02:59:04;;;;;;;;;;;;;;;29.28;41.86;94529.66;5029527;28;7186;-55
2023/08/13 03:02:05;;;;;;;;;;;;;;;29.26;41.90;94528.69;5044262;28;7133;-54
2023/08/13 03:04:31;;;;;;;;;;;;;;;29.28;41.75;94526.13;4955847;28;7422;-55
2023/08/13 03:07:30;;;;;;;;;;;;;;;29.25;41.63;94522.44;4963128;28;7173;-55
2023/08/13 03:10:17;;;;;;;;;;;;;;;29.25;41.63;94521.69;4896166;29;9108;-55
2023/08/13 03:13:03;;;;;;;;;;;;;;;29.23;42.40;94519.41;4913690;29;7183;-54
2023/08/13 03:15:30;;;;;;;;;;;;;;;29.24;41.92;94526.47;4931994;29;7233;-55
2023/08/13 03:18:07;;;;;;;;;;;;;;;29.23;42.05;94532.53;4896767;29;7235;-55
2023/08/13 03:20:35;;;;;;;;;;;;;;;29.23;41.08;94524.97;4917815;29;6949;-55
2023/08/13 03:23:11;;;;;;;;;;;;;;;29.19;41.42;94502.38;4912553;29;7173;-55
2023/08/13 03:25:39;;;;;;;;;;;;;;;29.21;41.82;94504.63;4881964;29;8993;-54
2023/08/13 03:28:07;;;;;;;;;;;;;;;29.21;42.17;94510.88;4897352;29;8724;-55
2023/08/13 03:30:42;;;;;;;;;;;;;;;29.17;41.93;94499.38;4890296;29;8788;-55
2023/08/13 03:33:09;;;;;;;;;;;;;;;29.19;41.88;94504.41;4895656;29;7293;-55
2023/08/13 03:35:48;;;;;;;;;;;;;;;29.19;41.52;94509.97;4893310;29;7322;-55
2023/08/13 03:38:29;;;;;;;;;;;;;;;29.16;41.98;94508.22;4894773;29;7243;-54
2023/08/13 03:41:28;;;;;;;;;;;;;;;29.17;42.06;94506.97;4947632;28;9380;-54
2023/08/13 03:43:59;;;;;;;;;;;;;;;29.17;41.35;94507.69;4913408;29;9513;-55
2023/08/13 03:46:34;;;;;;;;;;;;;;;29.13;41.52;94515.56;4978644;28;8750;-54
2023/08/13 03:48:59;;;;;;;;;;;;;;;29.15;41.91;94512.25;4968773;28;7272;-54
2023/08/13 03:51:28;;;;;;;;;;;;;;;29.15;41.37;94515.00;4972971;28;7163;-54
2023/08/13 03:53:55;;;;;;;;;;;;;;;29.13;41.90;94510.00;4988688;28;7477;-54
2023/08/13 03:56:23;;;;;;;;;;;;;;;29.13;41.22;94515.56;4984806;28;7464;-55
2023/08/13 03:58:50;;;;;;;;;;;;;;;29.13;41.70;94518.31;4975075;28;7238;-55
2023/08/13 04:01:16;;;;;;;;;;;;;;;29.13;41.38;94525.88;4971815;28;7025;-55
2023/08/13 04:03:42;;;;;;;;;;;;;;;29.12;41.23;94507.78;4976298;28;6982;-54
2023/08/13 04:06:08;;;;;;;;;;;;;;;29.12;41.45;94514.06;4973031;28;7668;-54
2023/08/13 04:08:36;;;;;;;;;;;;;;;29.12;41.32;94516.09;4976406;28;8750;-54
2023/08/13 04:11:16;;;;;;;;;;;;;;;29.08;41.05;94522.69;4991959;28;8855;-54
2023/08/13 04:13:43;;;;;;;;;;;;;;;29.09;40.99;94521.41;4968645;28;7192;-54
2023/08/13 04:16:09;;;;;;;;;;;;;;;29.08;41.03;94524.69;4961759;28;7266;-54
2023/08/13 04:18:38;;;;;;;;;;;;;;;29.04;41.19;94513.94;4973001;28;6856;-54
2023/08/13 04:21:07;;;;;;;;;;;;;;;29.08;40.95;94531.00;5037705;28;7258;-54
2023/08/13 04:23:33;;;;;;;;;;;;;;;29.08;40.87;94522.69;5042196;28;7081;-54
2023/08/13 04:26:00;;;;;;;;;;;;;;;29.07;40.50;94523.97;5047461;28;9531;-54
2023/08/13 04:28:25;;;;;;;;;;;;;;;29.05;41.57;94532.06;5034006;28;9148;-54
2023/08/13 04:30:51;;;;;;;;;;;;;;;29.04;41.23;94525.03;5046445;28;7579;-54
2023/08/13 04:33:22;;;;;;;;;;;;;;;29.05;40.94;94526.53;5051855;28;6981;-54
2023/08/13 04:35:54;;;;;;;;;;;;;;;29.05;41.12;94540.38;5050475;28;7316;-54
2023/08/13 04:38:21;;;;;;;;;;;;;;;29.04;41.39;94536.09;5061150;28;7152;-60
2023/08/13 04:40:49;;;;;;;;;;;;;;;29.04;41.08;94536.09;5046017;28;8995;-60
2023/08/13 04:43:25;;;;;;;;;;;;;;;29.03;41.55;94534.63;5059415;28;7228;-60
2023/08/13 04:45:56;;;;;;;;;;;;;;;29.03;41.62;94534.63;5047724;28;9643;-60
2023/08/13 04:48:59;;;;;;;;;;;;;;;29.03;40.98;94531.88;5067159;28;6996;-60
2023/08/13 04:51:26;;;;;;;;;;;;;;;29.03;40.60;94533.88;5080324;28;9360;-59
2023/08/13 04:53:56;;;;;;;;;;;;;;;29.02;41.61;94535.13;5043230;28;7231;-60
2023/08/13 04:56:29;;;;;;;;;;;;;;;29.00;40.28;94530.13;5055706;28;7205;-60
2023/08/13 04:59:07;;;;;;;;;;;;;;;28.96;41.35;94529.72;5047167;28;9085;-60
2023/08/13 05:01:48;;;;;;;;;;;;;;;28.98;41.27;94540.25;5045866;28;7267;-60
2023/08/13 05:04:16;;;;;;;;;;;;;;;28.97;40.86;94533.97;5045234;28;9068;-60
2023/08/13 05:06:51;;;;;;;;;;;;;;;28.99;41.53;94541.75;5039331;28;7230;-60
2023/08/13 05:09:31;;;;;;;;;;;;;;;28.97;41.41;94531.19;5047780;28;6867;-60
2023/08/13 05:12:04;;;;;;;;;;;;;;;28.97;41.05;94545.03;5046464;28;7580;-60
2023/08/13 05:14:44;;;;;;;;;;;;;;;28.98;41.09;94538.22;5064330;28;7268;-60
2023/08/13 05:17:22;;;;;;;;;;;;;;;28.95;41.37;94533.75;5051113;28;7154;-60
2023/08/13 05:19:50;;;;;;;;;;;;;;;28.97;41.43;94536.00;5044453;28;7051;-60
2023/08/13 05:22:33;;;;;;;;;;;;;;;28.97;41.26;94542.25;5063427;28;7334;-60
2023/08/13 05:25:17;;;;;;;;;;;;;;;28.96;41.44;94549.09;5042137;28;7384;-60
2023/08/13 05:27:43;;;;;;;;;;;;;;;28.96;41.02;94546.31;5028542;28;7451;-60
2023/08/13 05:30:13;;;;;;;;;;;;;;;28.96;40.82;94551.88;5033692;28;6897;-60
2023/08/13 05:32:53;;;;;;;;;;;;;;;28.95;41.74;94557.91;5051498;28;7279;-59
2023/08/13 05:35:24;;;;;;;;;;;;;;;28.96;41.71;94549.09;5038507;28;6917;-60
2023/08/13 05:37:50;;;;;;;;;;;;;;;28.98;40.98;94549.31;5048557;28;7337;-60
2023/08/13 05:40:20;;;;;;;;;;;;;;;28.99;41.32;94552.84;5067211;28;7461;-60
2023/08/13 05:42:47;;;;;;;;;;;;;;;28.98;41.21;94560.38;5045362;28;7084;-59
2023/08/13 05:45:33;;;;;;;;;;;;;;;28.97;40.95;94558.88;5049512;28;7201;-60
2023/08/13 05:48:10;;;;;;;;;;;;;;;28.96;41.34;94560.16;5053823;28;7523;-61
2023/08/13 05:50:50;;;;;;;;;;;;;;;28.95;41.12;94555.91;5033333;28;7253;-62
2023/08/13 05:53:29;;;;;;;;;;;;;;;28.95;41.07;94558.66;5035361;28;8259;-61
2023/08/13 05:56:32;;;;;;;;;;;;;;;28.96;41.56;94557.41;5044800;28;9240;-62
2023/08/13 05:59:11;;;;;;;;;;;;;;;28.93;41.59;94564.00;4962115;28;7241;-62
2023/08/13 06:01:38;;;;;;;;;;;;;;;28.93;41.64;94568.78;4964073;28;7237;-62
2023/08/13 06:04:04;;;;;;;;;;;;;;;28.93;41.59;94564.00;4967181;28;7427;-63
2023/08/13 06:07:13;;;;;;;;;;;;;;;28.94;42.08;94561.97;4948115;28;7320;-62
2023/08/13 06:09:39;;;;;;;;;;;;;;;28.91;41.45;94558.22;4943329;28;7324;-62
2023/08/13 06:12:16;;;;;;;;;;;;;;;28.91;41.69;94563.03;4955048;28;7171;-62
2023/08/13 06:14:42;;;;;;;;;;;;;;;28.90;41.59;94558.78;4968098;28;7255;-62
2023/08/13 06:17:11;;;;;;;;;;;;;;;28.90;42.27;94548.44;4963524;28;7218;-62
2023/08/13 06:19:47;;;;;;;;;;;;;;;28.91;41.98;94549.94;4939963;28;7448;-62
2023/08/13 06:22:16;;;;;;;;;;;;;;;28.94;42.53;94554.41;4955755;28;7280;-62
2023/08/13 06:24:45;;;;;;;;;;;;;;;28.96;42.14;94556.66;4965093;28;7051;-62
2023/08/13 06:27:12;;;;;;;;;;;;;;;28.94;42.22;94548.88;4963387;28;6859;-62
2023/08/13 06:30:24;;;;;;;;;;;;;;;28.95;42.48;94561.44;4970857;28;7602;-62
2023/08/13 06:32:50;;;;;;;;;;;;;;;28.99;43.06;94556.31;4920392;28;7498;-62
2023/08/13 06:35:16;;;;;;;;;;;;;;;28.95;42.12;94553.13;4948116;28;7067;-62
2023/08/13 06:37:57;;;;;;;;;;;;;;;28.98;42.54;94560.38;4946742;28;7214;-62
2023/08/13 06:40:37;;;;;;;;;;;;;;;28.98;42.64;94560.38;4963813;28;7065;-62
2023/08/13 06:43:04;;;;;;;;;;;;;;;28.99;42.99;94553.56;4971630;28;8962;-62
2023/08/13 06:46:01;;;;;;;;;;;;;;;29.01;43.04;94561.34;4971254;28;7273;-62
2023/08/13 06:48:33;;;;;;;;;;;;;;;29.00;42.94;94552.28;4920854;29;9167;-62
2023/08/13 06:51:00;;;;;;;;;;;;;;;29.03;42.36;94558.81;4923898;29;7205;-62
2023/08/13 06:53:36;;;;;;;;;;;;;;;29.02;42.82;94554.53;4915292;29;7179;-62
2023/08/13 06:56:13;;;;;;;;;;;;;;;29.03;42.77;94558.81;4925252;29;7038;-62
2023/08/13 06:58:49;;;;;;;;;;;;;;;29.02;42.19;94552.50;4928640;29;8722;-60
2023/08/13 07:01:40;;;;;;;;;;;;;;;29.02;43.34;94558.03;4915784;29;8553;-60
2023/08/13 07:04:39;;;;;;;;;;;;;;;29.01;42.47;94548.22;4928844;28;7236;-60
2023/08/13 07:07:06;;;;;;;;;;;;;;;29.01;42.98;94548.22;4932279;28;6992;-60
2023/08/13 07:09:34;;;;;;;;;;;;;;;28.98;42.92;94560.38;4947559;28;7054;-60
2023/08/13 07:12:00;;;;;;;;;;;;;;;29.01;43.30;94553.78;4973539;28;9019;-60
2023/08/13 07:14:45;;;;;;;;;;;;;;;29.00;43.86;94557.84;4969725;28;7324;-60
2023/08/13 07:17:23;;;;;;;;;;;;;;;28.96;44.39;94551.88;4973971;28;7113;-61
2023/08/13 07:19:58;;;;;;;;;;;;;;;28.99;43.69;94555.59;4968500;28;9113;-60
2023/08/13 07:22:29;;;;;;;;;;;;;;;28.97;44.09;94547.81;4974073;28;9069;-61
2023/08/13 07:25:21;;;;;;;;;;;;;;;28.96;44.45;94551.88;5011491;28;7274;-61
2023/08/13 07:27:49;;;;;;;;;;;;;;;28.98;44.47;94549.31;5018458;28;8065;-61
2023/08/13 07:30:26;;;;;;;;;;;;;;;28.99;43.70;94544.53;5037447;28;8472;-62
2023/08/13 07:32:52;;;;;;;;;;;;;;;28.99;44.27;94539.72;5030828;28;9113;-62
2023/08/13 07:35:35;;;;;;;;;;;;;;;28.99;45.03;94534.16;5049318;28;7392;-61
2023/08/13 07:38:34;;;;;;;;;;;;;;;29.05;47.76;94537.63;5031670;28;6949;-60
2023/08/13 07:41:03;;;;;;;;;;;;;;;29.11;47.54;94534.72;5029311;28;9343;-61
2023/08/13 07:43:39;;;;;;;;;;;;;;;29.10;46.93;94539.53;5035595;28;6987;-63
2023/08/13 07:49:56;;;;;;;;;;;;;;;29.07;45.58;94539.84;4985277;28;9410;-61
2023/08/13 07:52:38;;;;;;;;;;;;;;;29.03;45.95;94540.16;4976488;28;7293;-61
2023/08/13 07:55:05;;;;;;;;;;;;;;;29.03;46.41;94534.63;4980800;28;8220;-62
2023/08/13 07:57:31;;;;;;;;;;;;;;;29.01;45.46;94545.47;4984309;28;7150;-62
2023/08/13 08:00:01;;;;;;;;;;;;;;;29.00;45.00;94541.22;4969609;28;8880;-61
2023/08/13 08:02:40;;;;;;;;;;;;;;;28.99;45.51;94536.94;4970127;28;7400;-61
2023/08/13 08:05:19;;;;;;;;;;;;;;;28.99;45.00;94536.94;5001343;28;7246;-61
2023/08/13 08:07:48;;;;;;;;;;;;;;;29.00;45.44;94538.44;5002100;28;9351;-56
2023/08/13 08:10:14;;;;;;;;;;;;;;;29.00;45.76;94552.28;5006944;28;7838;-55
2023/08/13 08:13:19;;;;;;;;;;;;;;;29.02;45.89;94541.44;4992848;28;7295;-55
2023/08/13 08:16:22;;;;;;;;;;;;;;;29.04;45.88;94541.66;5005732;28;9683;-56
2023/08/13 08:19:04;;;;;;;;;;;;;;;29.07;46.88;94535.06;4986821;28;7240;-56
2023/08/13 08:21:32;;;;;;;;;;;;;;;29.08;46.36;94530.25;4984391;28;7208;-56
2023/08/13 08:24:12;;;;;;;;;;;;;;;29.06;46.69;94530.03;4983085;28;7112;-56
2023/08/13 08:26:38;;;;;;;;;;;;;;;29.09;46.48;94529.72;5025535;28;7134;-58
2023/08/13 08:29:09;;;;;;;;;;;;;;;29.11;46.16;94526.41;5050426;28;6972;-58
2023/08/13 08:31:42;;;;;;;;;;;;;;;29.12;46.29;94527.19;5057924;28;7165;-58
2023/08/13 08:34:08;;;;;;;;;;;;;;;29.13;46.56;94518.31;5065206;28;7506;-58
2023/08/13 08:36:36;;;;;;;;;;;;;;;29.17;46.51;94523.59;5050108;28;7249;-58
2023/08/13 08:39:12;;;;;;;;;;;;;;;29.19;47.54;94516.22;5051341;28;9367;-57
2023/08/13 08:41:46;;;;;;;;;;;;;;;29.21;46.33;94521.25;5047258;28;9053;-57
2023/08/13 08:44:42;;;;;;;;;;;;;;;29.24;46.83;94520.16;5046835;28;7495;-58
2023/08/13 08:47:09;;;;;;;;;;;;;;;29.24;47.33;94514.63;5047636;28;7195;-58
2023/08/13 08:49:35;;;;;;;;;;;;;;;29.23;46.71;94513.16;5027464;28;7284;-58
2023/08/13 08:52:02;;;;;;;;;;;;;;;29.21;46.74;94515.72;5032118;28;7042;-58
2023/08/13 08:54:43;;;;;;;;;;;;;;;29.21;46.45;94518.47;5045033;28;8957;-58
2023/08/13 08:57:21;;;;;;;;;;;;;;;29.21;46.43;94518.47;5046530;28;7356;-58
2023/08/13 09:00:23;;;;;;;;;;;;;;;29.23;46.53;94515.94;5033259;28;7232;-57
2023/08/13 09:03:04;;;;;;;;;;;;;;;29.21;46.67;94507.41;4949495;28;9121;-57
2023/08/13 09:05:42;;;;;;;;;;;;;;;29.20;46.92;94503.88;4933734;28;7265;-57
2023/08/13 09:08:15;;;;;;;;;;;;;;;29.18;46.19;94509.22;4947788;28;6982;-55
2023/08/13 09:10:43;;;;;;;;;;;;;;;29.19;45.95;94502.38;4949217;28;7293;-55
2023/08/13 09:13:11;;;;;;;;;;;;;;;29.19;46.90;94502.38;4947879;28;7412;-55
2023/08/13 09:15:50;;;;;;;;;;;;;;;29.16;46.43;94491.59;4946090;28;6903;-55
2023/08/13 09:18:41;;;;;;;;;;;;;;;29.19;46.02;94501.66;4948809;28;7877;-61
2023/08/13 09:21:09;;;;;;;;;;;;;;;29.20;45.68;94501.09;4948525;28;7241;-62
2023/08/13 09:23:41;;;;;;;;;;;;;;;29.18;46.33;94491.84;4936937;28;9146;-61
2023/08/13 09:26:26;;;;;;;;;;;;;;;29.21;45.90;94501.84;4936681;29;7413;-62
2023/08/13 09:29:08;;;;;;;;;;;;;;;29.20;45.60;94492.78;4945510;28;7904;-62
2023/08/13 09:31:45;;;;;;;;;;;;;;;29.20;45.94;94489.28;4936958;28;7229;-61
2023/08/13 09:37:41;;;;;;;;;;;;;;;29.21;45.40;94491.50;5023684;28;7073;-61
2023/08/13 09:40:36;;;;;;;;;;;;;;;29.21;46.48;94493.53;5026511;28;7419;-62
2023/08/13 09:43:19;;;;;;;;;;;;;;;29.21;46.25;94490.78;5029990;28;7265;-61
2023/08/13 09:46:00;;;;;;;;;;;;;;;29.20;45.79;94486.50;5047961;28;7017;-61
2023/08/13 09:48:29;;;;;;;;;;;;;;;29.21;46.55;94488.72;5051628;28;7204;-61
2023/08/13 09:51:07;;;;;;;;;;;;;;;29.23;46.04;94480.63;5040165;28;7051;-61
2023/08/13 09:53:52;;;;;;;;;;;;;;;29.26;45.06;94473.28;5034245;28;7088;-61
2023/08/13 09:56:22;;;;;;;;;;;;;;;29.31;45.62;94489.06;5028223;28;8177;-61
2023/08/13 09:59:05;;;;;;;;;;;;;;;29.32;45.32;94480.22;5050899;28;8784;-62
2023/08/13 10:02:07;;;;;;;;;;;;;;;29.34;45.29;94474.88;5036032;28;6979;-61
2023/08/13 10:04:50;;;;;;;;;;;;;;;29.35;45.08;94475.63;4968216;28;9015;-61
2023/08/13 10:07:36;;;;;;;;;;;;;;;29.35;45.27;94472.84;4946928;28;7957;-62
2023/08/13 10:10:19;;;;;;;;;;;;;;;29.36;45.76;94466.78;4944309;28;6982;-61
2023/08/13 10:13:16;;;;;;;;;;;;;;;29.37;45.45;94467.53;4963446;28;8513;-62
2023/08/13 10:15:53;;;;;;;;;;;;;;;29.38;45.56;94469.03;4933233;29;8188;-61
2023/08/13 10:18:32;;;;;;;;;;;;;;;29.37;45.00;94471.06;4936884;29;7002;-62
2023/08/13 10:21:12;;;;;;;;;;;;;;;29.40;45.73;94475.53;4942744;29;7317;-61
2023/08/13 10:23:42;;;;;;;;;;;;;;;29.41;45.84;94470.72;4927585;29;6852;-61
2023/08/13 10:26:35;;;;;;;;;;;;;;;29.41;45.00;94467.94;4936209;29;7205;-61
2023/08/13 10:29:20;;;;;;;;;;;;;;;29.41;45.43;94467.94;4952073;29;7203;-61
2023/08/13 10:32:12;;;;;;;;;;;;;;;29.41;44.61;94473.47;4929281;29;7318;-62
2023/08/13 10:34:47;;;;;;;;;;;;;;;29.40;45.66;94467.22;4948570;29;7279;-64
2023/08/13 10:37:16;;;;;;;;;;;;;;;29.45;45.04;94465.63;4934364;28;7001;-64
2023/08/13 10:39:45;;;;;;;;;;;;;;;29.45;45.08;94468.41;5006268;28;7478;-64
2023/08/13 10:42:26;;;;;;;;;;;;;;;29.44;45.21;94461.34;5008905;28;7268;-64
2023/08/13 10:45:04;;;;;;;;;;;;;;;29.44;44.72;94455.81;5010917;28;8886;-65
2023/08/13 10:47:39;;;;;;;;;;;;;;;29.44;45.29;94456.56;5010230;28;8263;-64
2023/08/13 10:50:39;;;;;;;;;;;;;;;29.45;44.72;94457.31;5009650;28;7065;-64
2023/08/13 10:53:26;;;;;;;;;;;;;;;29.45;45.27;94457.31;4951304;28;7254;-64
2023/08/13 10:56:05;;;;;;;;;;;;;;;29.45;44.71;94452.50;4974608;28;8954;-64
2023/08/13 10:58:38;;;;;;;;;;;;;;;29.45;45.07;94454.53;4957692;28;7262;-64
2023/08/13 11:01:16;;;;;;;;;;;;;;;29.47;44.92;94457.50;4944011;28;7239;-63
2023/08/13 11:04:03;;;;;;;;;;;;;;;29.48;45.03;94456.22;4980392;28;9135;-64
2023/08/13 11:06:59;;;;;;;;;;;;;;;29.47;44.23;94452.69;4965795;28;7270;-64
2023/08/13 11:09:44;;;;;;;;;;;;;;;29.49;45.33;94452.19;4955971;28;7062;-62
2023/08/13 11:12:13;;;;;;;;;;;;;;;29.51;44.86;94455.91;4953581;28;7567;-61
2023/08/13 11:14:48;;;;;;;;;;;;;;;29.50;44.76;94450.88;4951993;28;7082;-62
2023/08/13 11:17:26;;;;;;;;;;;;;;;29.50;43.98;94451.63;4961224;28;7061;-62
2023/08/13 11:23:30;;;;;;;;;;;;;;;29.56;44.13;94445.97;4941810;28;7256;-62
2023/08/13 11:26:34;;;;;;;;;;;;;;;29.56;44.65;94445.97;4926654;28;9218;-62
2023/08/13 11:29:05;;;;;;;;;;;;;;;29.55;44.38;94441.72;4941429;28;7287;-61
2023/08/13 11:31:50;;;;;;;;;;;;;;;29.57;44.59;94448.22;4939367;28;9128;-61
2023/08/13 11:34:52;;;;;;;;;;;;;;;29.56;44.49;94441.16;4951409;28;7278;-62
2023/08/13 11:37:46;;;;;;;;;;;;;;;29.58;44.06;94443.44;4936322;29;9437;-60
2023/08/13 11:40:24;;;;;;;;;;;;;;;29.59;44.73;94439.38;4937349;28;9231;-60
2023/08/13 11:43:19;;;;;;;;;;;;;;;29.58;44.02;94437.88;4954351;28;7442;-60
2023/08/13 11:46:20;;;;;;;;;;;;;;;29.57;44.97;94439.16;4939667;28;7617;-59
2023/08/13 11:48:46;;;;;;;;;;;;;;;29.56;43.78;94434.88;4971693;28;9187;-59
2023/08/13 11:51:40;;;;;;;;;;;;;;;29.57;44.77;94436.38;4970477;28;7229;-59
2023/08/13 11:54:25;;;;;;;;;;;;;;;29.55;44.62;94428.63;4959137;28;7177;-59
2023/08/13 11:57:06;;;;;;;;;;;;;;;29.57;44.24;94430.84;4958665;28;7002;-59
2023/08/13 11:59:38;;;;;;;;;;;;;;;29.58;44.20;94429.56;4981501;28;7492;-60
2023/08/13 12:02:40;;;;;;;;;;;;;;;29.59;44.52;94431.03;5032406;28;8421;-59
2023/08/13 12:05:12;;;;;;;;;;;;;;;29.56;44.23;94421.78;5013719;28;7307;-59
2023/08/13 12:07:44;;;;;;;;;;;;;;;29.58;44.50;94426.78;5024340;28;7036;-59
2023/08/13 12:10:19;;;;;;;;;;;;;;;29.59;44.27;94425.50;5014656;28;7251;-59
2023/08/13 12:13:06;;;;;;;;;;;;;;;29.61;43.68;94425.72;5025669;28;7280;-60
2023/08/13 12:16:00;;;;;;;;;;;;;;;29.61;44.92;94420.91;5016322;28;9356;-59
2023/08/13 12:18:39;;;;;;;;;;;;;;;29.62;44.40;94410.56;5045969;28;9484;-60
2023/08/13 12:21:06;;;;;;;;;;;;;;;29.65;44.00;94420.56;5008878;28;7169;-60
2023/08/13 12:26:41;;;;;;;;;;;;;;;29.66;44.62;94413.75;5042377;28;9004;-59
2023/08/13 12:29:23;;;;;;;;;;;;;;;29.66;44.26;94405.44;5064767;28;7266;-60
2023/08/13 12:31:54;;;;;;;;;;;;;;;29.64;44.63;94406.00;5068263;28;8729;-59
2023/08/13 12:34:51;;;;;;;;;;;;;;;29.70;44.18;94405.84;5042744;28;7058;-59
2023/08/13 12:37:27;;;;;;;;;;;;;;;29.71;44.32;94404.59;5041272;28;7070;-60
2023/08/13 12:39:59;;;;;;;;;;;;;;;29.72;44.09;94398.50;5052917;28;9071;-60
2023/08/13 12:42:37;;;;;;;;;;;;;;;29.73;44.03;94399.25;5051020;28;7078;-60
2023/08/13 12:45:07;;;;;;;;;;;;;;;29.74;43.55;94395.22;5047023;28;8304;-59
2023/08/13 12:47:42;;;;;;;;;;;;;;;29.77;44.41;94388.59;5046603;28;7322;-59
2023/08/13 12:50:36;;;;;;;;;;;;;;;29.77;44.46;94389.34;5039684;28;7876;-60
2023/08/13 12:53:16;;;;;;;;;;;;;;;29.79;43.57;94388.78;5043470;28;7019;-60
2023/08/13 12:56:07;;;;;;;;;;;;;;;29.80;44.78;94387.50;5065903;28;7395;-59
2023/08/13 12:58:40;;;;;;;;;;;;;;;29.79;44.52;94386.03;5032459;28;7355;-59
2023/08/13 13:01:21;;;;;;;;;;;;;;;29.78;44.06;94387.28;5049808;28;8298;-60
2023/08/13 13:04:25;;;;;;;;;;;;;;;29.83;44.81;94383.66;5047107;28;7017;-60
2023/08/13 13:07:05;;;;;;;;;;;;;;;29.84;44.23;94382.34;5000353;28;7238;-60
2023/08/13 13:09:32;;;;;;;;;;;;;;;29.85;43.61;94377.56;4992491;28;7222;-60
2023/08/13 13:12:19;;;;;;;;;;;;;;;29.81;43.60;94366.81;5015332;28;7081;-60
2023/08/13 13:15:05;;;;;;;;;;;;;;;29.86;43.74;94370.75;5002503;28;7108;-59
2023/08/13 13:17:35;;;;;;;;;;;;;;;29.88;43.79;94371.69;5012254;28;7321;-59
2023/08/13 13:20:18;;;;;;;;;;;;;;;29.87;43.59;94364.66;4992663;28;7080;-60
2023/08/13 13:22:55;;;;;;;;;;;;;;;29.88;44.17;94368.19;4996374;28;7295;-59
2023/08/13 13:25:49;;;;;;;;;;;;;;;29.87;43.53;94372.22;5004425;28;7004;-60
2023/08/13 13:28:34;;;;;;;;;;;;;;;29.89;43.79;94370.41;4993750;28;7478;-60
2023/08/13 13:31:03;;;;;;;;;;;;;;;29.87;44.39;94370.19;5004755;28;6985;-59
2023/08/13 13:33:58;;;;;;;;;;;;;;;29.89;44.43;94369.66;4989870;28;7466;-60
2023/08/13 13:36:36;;;;;;;;;;;;;;;29.91;44.56;94365.06;4930016;29;9199;-60
2023/08/13 13:39:12;;;;;;;;;;;;;;;29.92;44.11;94363.03;4930926;29;9371;-60
2023/08/13 13:41:38;;;;;;;;;;;;;;;29.90;44.46;94366.34;4951189;28;8477;-60
2023/08/13 13:44:04;;;;;;;;;;;;;;;29.90;44.54;94355.25;4977912;28;7265;-60
2023/08/13 13:46:31;;;;;;;;;;;;;;;29.90;43.93;94357.28;4961505;28;7223;-60
2023/08/13 13:49:02;;;;;;;;;;;;;;;29.89;44.42;94351.00;4970983;28;7045;-60
2023/08/13 13:51:47;;;;;;;;;;;;;;;29.90;43.96;94346.19;4972559;28;8101;-60
2023/08/13 13:54:31;;;;;;;;;;;;;;;29.94;44.74;94355.66;4966493;28;7083;-60
2023/08/13 13:56:57;;;;;;;;;;;;;;;29.94;44.09;94352.16;4981235;28;7886;-60
2023/08/13 13:59:23;;;;;;;;;;;;;;;29.93;43.84;94353.44;4979666;28;7219;-59
2023/08/13 14:01:51;;;;;;;;;;;;;;;29.93;44.98;94351.41;4995196;28;6988;-60
2023/08/13 14:04:20;;;;;;;;;;;;;;;29.95;43.83;94348.81;4976674;28;9066;-60